createdAt,value
2018-10-06T00:00:13.318Z,19.60
2018-10-06T00:02:40.871Z,19.70
2018-10-06T00:05:08.352Z,19.60
2018-10-06T00:07:35.861Z,19.60
2018-10-06T00:10:03.438Z,18.80
2018-10-06T00:12:30.906Z,18.10
2018-10-06T00:14:58.506Z,18.30
2018-10-06T00:17:26.185Z,18.40
2018-10-06T00:19:54.130Z,18.80
2018-10-06T00:22:21.707Z,18.70
2018-10-06T00:24:49.127Z,18.80
2018-10-06T00:27:16.646Z,19.10
2018-10-06T00:29:44.240Z,18.30
2018-10-06T00:32:11.709Z,18.60
2018-10-06T00:34:39.185Z,18.70
2018-10-06T00:37:06.642Z,18.10
2018-10-06T00:39:34.157Z,17.50
2018-10-06T00:42:01.734Z,17.60
2018-10-06T00:44:29.296Z,18.50
2018-10-06T00:46:56.909Z,19.10
2018-10-06T00:49:25.342Z,19.60
2018-10-06T00:51:52.922Z,19.70
2018-10-06T00:54:20.411Z,19.60
2018-10-06T00:56:47.979Z,18.40
2018-10-06T00:59:15.561Z,17.30
2018-10-06T01:01:43.153Z,17.20
2018-10-06T01:04:10.929Z,17.00
2018-10-06T01:06:38.442Z,17.70
2018-10-06T01:09:07.246Z,18.30
2018-10-06T01:11:34.674Z,17.80
2018-10-06T01:14:02.146Z,17.40
2018-10-06T01:16:29.604Z,17.80
2018-10-06T01:18:57.095Z,18.00
2018-10-06T01:21:25.025Z,18.70
2018-10-06T01:23:52.450Z,19.20
2018-10-06T01:26:20.070Z,19.60
2018-10-06T01:28:47.730Z,19.90
2018-10-06T01:31:15.177Z,20.10
2018-10-06T01:33:42.657Z,19.90
2018-10-06T01:36:10.201Z,18.90
2018-10-06T01:38:37.633Z,18.20
2018-10-06T01:41:05.457Z,18.60
2018-10-06T01:43:32.896Z,19.00
2018-10-06T01:46:00.393Z,18.80
2018-10-06T01:48:27.863Z,19.00
2018-10-06T01:50:55.298Z,19.30
2018-10-06T01:53:22.787Z,19.30
2018-10-06T01:55:50.483Z,18.60
2018-10-06T01:58:17.922Z,18.10
2018-10-06T02:00:45.402Z,18.70
2018-10-06T02:03:12.930Z,19.20
2018-10-06T02:05:40.435Z,19.60
2018-10-06T02:08:08.077Z,19.30
2018-10-06T02:10:35.591Z,18.90
2018-10-06T02:13:03.129Z,18.90
2018-10-06T02:15:30.602Z,18.90
2018-10-06T02:17:58.069Z,18.80
2018-10-06T02:20:25.635Z,18.50
2018-10-06T02:22:53.678Z,18.80
2018-10-06T02:25:21.293Z,18.50
2018-10-06T02:27:48.806Z,18.70
2018-10-06T02:30:16.391Z,18.90
2018-10-06T02:32:43.690Z,18.50
2018-10-06T02:35:11.293Z,18.60
2018-10-06T02:37:38.838Z,19.10
2018-10-06T02:40:06.417Z,19.60
2018-10-06T02:42:33.937Z,20.00
2018-10-06T02:45:01.396Z,20.20
2018-10-06T02:47:28.992Z,20.30
2018-10-06T02:49:56.554Z,20.00
2018-10-06T02:52:24.035Z,19.80
2018-10-06T02:54:51.607Z,19.30
2018-10-06T02:57:19.057Z,18.70
2018-10-06T02:59:46.522Z,19.00
2018-10-06T03:02:14.006Z,19.50
2018-10-06T03:04:41.459Z,19.80
2018-10-06T03:07:08.989Z,19.90
2018-10-06T03:09:36.490Z,20.10
2018-10-06T03:12:04.089Z,20.30
2018-10-06T03:14:31.516Z,20.40
2018-10-06T03:16:59.093Z,20.40
2018-10-06T03:19:26.498Z,20.30
2018-10-06T03:21:54.178Z,20.20
2018-10-06T03:24:21.658Z,19.60
2018-10-06T03:26:49.163Z,18.90
2018-10-06T03:29:16.629Z,19.10
2018-10-06T03:31:44.046Z,19.50
2018-10-06T03:34:11.554Z,19.60
2018-10-06T03:36:39.094Z,19.60
2018-10-06T03:39:07.110Z,19.60
2018-10-06T03:41:34.618Z,18.80
2018-10-06T03:44:02.095Z,17.70
2018-10-06T03:46:29.518Z,16.60
2018-10-06T03:48:56.958Z,16.40
2018-10-06T03:51:24.439Z,17.40
2018-10-06T03:53:51.892Z,18.30
2018-10-06T03:56:19.422Z,18.90
2018-10-06T03:58:47.039Z,19.30
2018-10-06T04:01:14.538Z,19.60
2018-10-06T04:03:42.031Z,19.40
2018-10-06T04:06:09.530Z,18.80
2018-10-06T04:08:37.037Z,17.80
2018-10-06T04:11:04.490Z,17.60
2018-10-06T04:13:31.930Z,18.30
2018-10-06T04:15:59.379Z,18.80
2018-10-06T04:18:26.782Z,18.90
2018-10-06T04:20:54.205Z,19.00
2018-10-06T04:23:21.755Z,19.20
2018-10-06T04:25:49.197Z,19.50
2018-10-06T04:28:16.673Z,19.80
2018-10-06T04:30:44.107Z,19.70
2018-10-06T04:33:11.548Z,19.60
2018-10-06T04:35:38.978Z,18.30
2018-10-06T04:38:06.495Z,18.10
2018-10-06T04:40:33.917Z,18.40
2018-10-06T04:43:01.366Z,18.90
2018-10-06T04:45:28.939Z,19.10
2018-10-06T04:47:56.619Z,18.70
2018-10-06T04:50:24.294Z,18.10
2018-10-06T04:52:51.813Z,18.40
2018-10-06T04:55:19.251Z,18.90
2018-10-06T04:57:46.803Z,18.70
2018-10-06T05:00:14.359Z,18.90
2018-10-06T05:02:41.966Z,18.50
2018-10-06T05:05:09.424Z,18.50
2018-10-06T05:07:36.842Z,18.60
2018-10-06T05:10:12.454Z,18.20
2018-10-06T05:12:39.943Z,18.20
2018-10-06T05:15:07.545Z,18.50
2018-10-06T05:17:34.986Z,18.80
2018-10-06T05:20:02.482Z,18.80
2018-10-06T05:22:29.976Z,18.60
2018-10-06T05:24:57.418Z,17.80
2018-10-06T05:27:24.923Z,18.20
2018-10-06T05:29:52.362Z,17.80
2018-10-06T05:32:19.870Z,17.80
2018-10-06T05:34:47.402Z,18.00
2018-10-06T05:37:14.966Z,17.90
2018-10-06T05:39:42.509Z,17.50
2018-10-06T05:42:10.006Z,17.30
2018-10-06T05:44:37.487Z,18.00
2018-10-06T05:47:05.054Z,18.90
2018-10-06T05:49:32.524Z,19.40
2018-10-06T05:52:00.127Z,19.70
2018-10-06T05:54:27.614Z,20.00
2018-10-06T05:56:55.078Z,19.90
2018-10-06T05:59:22.534Z,20.00
2018-10-06T06:01:50.011Z,20.10
2018-10-06T06:04:17.818Z,19.80
2018-10-06T06:06:45.339Z,19.70
2018-10-06T06:09:12.790Z,19.90
2018-10-06T06:11:40.234Z,20.10
2018-10-06T06:14:07.692Z,20.00
2018-10-06T06:16:35.129Z,19.70
2018-10-06T06:19:02.622Z,19.50
2018-10-06T06:21:30.162Z,19.70
2018-10-06T06:23:57.736Z,19.80
2018-10-06T06:26:25.307Z,19.90
2018-10-06T06:28:52.745Z,20.00
2018-10-06T06:31:20.256Z,20.10
2018-10-06T06:33:47.734Z,20.00
2018-10-06T06:36:15.374Z,20.10
2018-10-06T06:38:42.815Z,20.10
2018-10-06T06:41:10.268Z,20.10
2018-10-06T06:43:37.867Z,19.30
2018-10-06T06:46:05.386Z,18.20
2018-10-06T06:48:32.906Z,17.70
2018-10-06T06:51:00.462Z,17.30
2018-10-06T06:53:27.996Z,17.00
2018-10-06T06:55:55.493Z,17.50
2018-10-06T06:58:23.027Z,18.40
2018-10-06T07:00:50.617Z,19.10
2018-10-06T07:03:18.106Z,19.60
2018-10-06T07:05:45.581Z,19.70
2018-10-06T07:08:13.029Z,19.10
2018-10-06T07:10:40.550Z,19.20
2018-10-06T07:13:08.134Z,18.60
2018-10-06T07:15:35.560Z,18.20
2018-10-06T07:18:03.045Z,18.30
2018-10-06T07:20:30.526Z,18.50
2018-10-06T07:22:58.071Z,19.10
2018-10-06T07:25:25.596Z,19.60
2018-10-06T07:27:53.000Z,19.80
2018-10-06T07:30:20.498Z,19.90
2018-10-06T07:32:48.080Z,20.10
2018-10-06T07:35:15.539Z,20.40
2018-10-06T07:37:42.962Z,20.50
2018-10-06T07:40:10.507Z,20.20
2018-10-06T07:42:38.026Z,19.30
2018-10-06T07:45:05.698Z,19.10
2018-10-06T07:47:33.154Z,19.10
2018-10-06T07:50:00.822Z,19.10
2018-10-06T07:52:28.439Z,18.90
2018-10-06T07:54:55.938Z,19.20
2018-10-06T07:57:23.433Z,19.50
2018-10-06T07:59:50.929Z,19.40
2018-10-06T08:02:18.395Z,19.60
2018-10-06T08:04:45.938Z,19.10
2018-10-06T08:07:13.446Z,19.10
2018-10-06T08:09:41.063Z,19.60
2018-10-06T08:12:08.778Z,20.20
2018-10-06T08:14:36.228Z,20.00
2018-10-06T08:17:03.994Z,20.20
2018-10-06T08:19:31.478Z,20.30
2018-10-06T08:21:59.036Z,19.70
2018-10-06T08:24:26.573Z,20.20
2018-10-06T08:26:54.171Z,20.60
2018-10-06T08:29:21.734Z,20.20
2018-10-06T08:31:49.187Z,19.90
2018-10-06T08:34:16.656Z,19.40
2018-10-06T08:36:44.104Z,19.10
2018-10-06T08:39:11.582Z,19.30
2018-10-06T08:41:39.046Z,19.70
2018-10-06T08:44:06.585Z,20.40
2018-10-06T08:46:34.279Z,20.50
2018-10-06T08:49:01.730Z,20.60
2018-10-06T08:51:29.460Z,21.20
2018-10-06T08:53:57.057Z,21.10
2018-10-06T08:56:24.549Z,20.80
2018-10-06T08:58:52.609Z,20.60
2018-10-06T09:01:20.484Z,20.90
2018-10-06T09:03:47.925Z,20.30
2018-10-06T09:06:15.382Z,20.00
2018-10-06T09:08:42.866Z,20.10
2018-10-06T09:11:10.333Z,20.00
2018-10-06T09:13:37.900Z,20.40
2018-10-06T09:16:05.498Z,20.40
2018-10-06T09:18:33.433Z,20.40
2018-10-06T09:21:00.944Z,20.50
2018-10-06T09:23:28.543Z,20.90
2018-10-06T09:25:56.073Z,21.00
2018-10-06T09:28:23.601Z,21.20
2018-10-06T09:30:51.241Z,21.00
2018-10-06T09:33:18.778Z,21.20
2018-10-06T09:35:46.803Z,21.40
2018-10-06T09:38:14.790Z,21.70
2018-10-06T09:40:42.281Z,21.70
2018-10-06T09:43:09.892Z,21.70
2018-10-06T09:45:37.407Z,21.80
2018-10-06T09:48:04.893Z,21.90
2018-10-06T09:50:32.342Z,21.90
2018-10-06T09:52:59.878Z,22.10
2018-10-06T09:55:27.426Z,21.80
2018-10-06T09:57:54.925Z,21.80
2018-10-06T10:00:28.262Z,21.80
2018-10-06T10:03:01.557Z,21.80
2018-10-06T10:05:34.750Z,22.00
2018-10-06T10:08:02.232Z,21.70
2018-10-06T10:10:29.746Z,21.80
2018-10-06T10:12:57.291Z,21.80
2018-10-06T10:15:24.808Z,22.10
2018-10-06T10:17:52.502Z,22.60
2018-10-06T10:20:19.946Z,22.90
2018-10-06T10:22:47.471Z,23.00
2018-10-06T10:25:14.958Z,22.90
2018-10-06T10:27:42.423Z,22.70
2018-10-06T10:30:09.989Z,23.10
2018-10-06T10:32:37.413Z,23.40
2018-10-06T10:35:05.126Z,23.60
2018-10-06T10:37:32.679Z,23.50
2018-10-06T10:40:00.091Z,23.50
2018-10-06T10:42:27.666Z,23.50
2018-10-06T10:44:55.095Z,23.30
2018-10-06T10:47:22.558Z,23.60
2018-10-06T10:49:50.038Z,23.70
2018-10-06T10:52:17.504Z,23.70
2018-10-06T10:54:44.965Z,23.90
2018-10-06T10:57:12.577Z,24.30
2018-10-06T10:59:40.055Z,24.60
2018-10-06T11:02:07.546Z,25.90
2018-10-06T11:04:35.027Z,27.20
2018-10-06T11:07:02.495Z,30.40
2018-10-06T11:09:29.937Z,34.20
2018-10-06T11:11:57.369Z,36.20
2018-10-06T11:14:24.848Z,35.90
2018-10-06T11:16:52.346Z,31.40
2018-10-06T11:19:19.805Z,28.50
2018-10-06T11:21:47.206Z,28.60
2018-10-06T11:24:14.703Z,27.90
2018-10-06T11:26:42.154Z,27.70
2018-10-06T11:29:09.549Z,26.80
2018-10-06T11:31:36.993Z,26.80
2018-10-06T11:34:04.420Z,25.70
2018-10-06T11:36:31.894Z,25.40
2018-10-06T11:38:59.357Z,25.00
2018-10-06T11:41:26.838Z,24.80
2018-10-06T11:43:54.319Z,25.40
2018-10-06T11:46:21.771Z,25.20
2018-10-06T11:48:49.249Z,25.20
2018-10-06T11:51:16.691Z,25.30
2018-10-06T11:53:44.142Z,25.50
2018-10-06T11:56:11.569Z,25.70
2018-10-06T11:58:39.010Z,25.60
2018-10-06T12:01:06.450Z,25.60
2018-10-06T12:03:33.867Z,25.50
2018-10-06T12:06:01.277Z,25.30
2018-10-06T12:08:28.722Z,25.20
2018-10-06T12:10:56.175Z,24.90
2018-10-06T12:13:23.630Z,24.80
2018-10-06T12:15:51.823Z,24.20
2018-10-06T12:18:19.247Z,24.20
2018-10-06T12:20:46.716Z,24.30
2018-10-06T12:23:14.145Z,24.30
2018-10-06T12:25:41.628Z,24.10
2018-10-06T12:28:09.081Z,24.40
2018-10-06T12:30:36.503Z,24.70
2018-10-06T12:33:04.163Z,24.90
2018-10-06T12:35:31.784Z,24.70
2018-10-06T12:37:59.119Z,24.60
2018-10-06T12:40:26.546Z,24.60
2018-10-06T12:42:54.023Z,24.70
2018-10-06T12:45:21.462Z,24.70
2018-10-06T12:47:48.919Z,24.80
2018-10-06T12:50:16.369Z,24.70
2018-10-06T12:52:43.880Z,24.50
2018-10-06T12:55:11.322Z,24.50
2018-10-06T12:57:38.745Z,24.60
2018-10-06T13:00:06.310Z,24.80
2018-10-06T13:02:34.019Z,24.60
2018-10-06T13:05:01.501Z,24.70
2018-10-06T13:07:29.007Z,24.80
2018-10-06T13:09:56.502Z,24.70
2018-10-06T13:12:23.984Z,24.70
2018-10-06T13:14:51.477Z,24.40
2018-10-06T13:17:18.904Z,24.40
2018-10-06T13:19:46.341Z,24.70
2018-10-06T13:22:13.817Z,25.00
2018-10-06T13:24:41.304Z,25.10
2018-10-06T13:27:08.860Z,25.20
2018-10-06T13:29:36.301Z,26.60
2018-10-06T13:32:03.853Z,27.40
2018-10-06T13:34:31.243Z,26.90
2018-10-06T13:36:58.722Z,26.10
2018-10-06T13:39:26.149Z,26.00
2018-10-06T13:41:53.658Z,25.70
2018-10-06T13:44:21.151Z,25.80
2018-10-06T13:46:48.626Z,26.80
2018-10-06T13:49:16.097Z,27.10
2018-10-06T13:51:43.532Z,26.90
2018-10-06T13:54:11.083Z,26.80
2018-10-06T13:56:38.581Z,26.50
2018-10-06T13:59:06.094Z,26.80
2018-10-06T14:01:33.783Z,29.60
2018-10-06T14:04:01.243Z,29.90
2018-10-06T14:06:28.702Z,29.20
2018-10-06T14:08:56.190Z,28.80
2018-10-06T14:11:23.635Z,27.70
2018-10-06T14:13:51.114Z,26.40
2018-10-06T14:16:18.565Z,25.60
2018-10-06T14:18:46.023Z,25.30
2018-10-06T14:21:13.470Z,25.20
2018-10-06T14:23:40.914Z,25.00
2018-10-06T14:26:08.554Z,24.90
2018-10-06T14:28:36.030Z,25.00
2018-10-06T14:31:03.499Z,24.80
2018-10-06T14:33:30.919Z,24.60
2018-10-06T14:35:58.398Z,24.50
2018-10-06T14:38:25.838Z,24.40
2018-10-06T14:40:53.442Z,24.40
2018-10-06T14:43:20.954Z,24.40
2018-10-06T14:45:48.437Z,24.40
2018-10-06T14:48:15.906Z,24.50
2018-10-06T14:50:43.486Z,24.50
2018-10-06T14:53:10.959Z,24.40
2018-10-06T14:55:38.439Z,24.20
2018-10-06T14:58:05.901Z,24.10
2018-10-06T15:00:33.406Z,24.00
2018-10-06T15:03:00.943Z,24.10
2018-10-06T15:05:28.387Z,24.10
2018-10-06T15:07:55.813Z,24.10
2018-10-06T15:10:23.316Z,24.10
2018-10-06T15:12:50.758Z,24.20
2018-10-06T15:15:18.248Z,24.20
2018-10-06T15:17:45.706Z,24.20
2018-10-06T15:20:13.179Z,24.20
2018-10-06T15:25:05.126Z,24.20
2018-10-06T15:27:32.576Z,24.10
2018-10-06T15:30:00.019Z,24.00
2018-10-06T15:32:27.482Z,24.00
2018-10-06T15:34:54.913Z,24.00
2018-10-06T15:37:22.366Z,24.00
2018-10-06T15:39:49.818Z,24.00
2018-10-06T15:42:17.281Z,23.90
2018-10-06T15:44:44.742Z,23.90
2018-10-06T15:47:12.163Z,23.80
2018-10-06T15:49:39.614Z,23.80
2018-10-06T15:52:07.090Z,23.80
2018-10-06T15:54:34.549Z,23.70
2018-10-06T15:57:02.036Z,23.70
2018-10-06T15:59:29.586Z,23.70
2018-10-06T16:01:57.041Z,23.70
2018-10-06T16:04:24.502Z,23.70
2018-10-06T16:06:51.942Z,23.50
2018-10-06T16:09:19.386Z,23.50
2018-10-06T16:11:46.818Z,23.50
2018-10-06T16:14:14.254Z,23.60
2018-10-06T16:16:41.689Z,23.60
2018-10-06T16:19:09.750Z,23.60
2018-10-06T16:21:37.195Z,23.50
2018-10-06T16:24:04.693Z,23.20
2018-10-06T16:26:32.170Z,22.80
2018-10-06T16:28:59.639Z,22.80
2018-10-06T16:31:27.099Z,22.80
2018-10-06T16:33:54.523Z,23.00
2018-10-06T16:36:22.082Z,23.00
2018-10-06T16:38:49.518Z,23.10
2018-10-06T16:41:17.109Z,23.30
2018-10-06T16:43:44.491Z,23.40
2018-10-06T16:46:11.993Z,23.30
2018-10-06T16:48:39.418Z,23.00
2018-10-06T16:51:06.997Z,22.80
2018-10-06T16:53:34.434Z,22.60
2018-10-06T16:56:01.894Z,22.90
2018-10-06T16:58:29.354Z,23.20
2018-10-06T17:00:56.796Z,23.40
2018-10-06T17:03:24.266Z,23.50
2018-10-06T17:05:51.754Z,23.60
2018-10-06T17:08:19.854Z,23.70
2018-10-06T17:10:47.294Z,23.60
2018-10-06T17:13:14.734Z,23.30
2018-10-06T17:15:42.245Z,23.30
2018-10-06T17:18:09.718Z,23.40
2018-10-06T17:20:37.190Z,23.50
2018-10-06T17:23:04.673Z,23.50
2018-10-06T17:25:32.172Z,23.50
2018-10-06T17:27:59.627Z,23.20
2018-10-06T17:30:27.074Z,22.90
2018-10-06T17:32:54.514Z,22.90
2018-10-06T17:35:22.006Z,23.00
2018-10-06T17:37:49.459Z,23.00
2018-10-06T17:40:16.940Z,23.10
2018-10-06T17:42:44.434Z,23.10
2018-10-06T17:45:11.929Z,23.20
2018-10-06T17:47:39.349Z,23.20
2018-10-06T17:50:07.103Z,23.00
2018-10-06T17:52:34.437Z,23.20
2018-10-06T17:55:01.909Z,23.10
2018-10-06T17:57:29.416Z,23.10
2018-10-06T17:59:56.811Z,23.40
2018-10-06T18:02:24.438Z,23.40
2018-10-06T18:04:52.027Z,23.30
2018-10-06T18:07:19.526Z,23.30
2018-10-06T18:09:46.995Z,23.50
2018-10-06T18:12:14.454Z,23.60
2018-10-06T18:14:42.032Z,23.80
2018-10-06T18:17:09.389Z,23.90
2018-10-06T18:19:36.853Z,23.90
2018-10-06T18:22:04.312Z,23.90
2018-10-06T18:24:31.918Z,23.70
2018-10-06T18:26:59.343Z,23.50
2018-10-06T18:29:26.977Z,23.40
2018-10-06T18:31:54.326Z,23.60
2018-10-06T18:34:21.771Z,23.70
2018-10-06T18:36:49.334Z,23.80
2018-10-06T18:39:16.718Z,23.80
2018-10-06T18:41:44.234Z,23.80
2018-10-06T18:44:11.726Z,23.70
2018-10-06T18:46:39.169Z,23.50
2018-10-06T18:49:06.724Z,23.30
2018-10-06T18:51:34.150Z,23.40
2018-10-06T18:54:01.570Z,23.50
2018-10-06T18:56:29.018Z,23.50
2018-10-06T18:58:56.462Z,23.10
2018-10-06T19:01:23.906Z,22.60
2018-10-06T19:03:51.365Z,22.70
2018-10-06T19:06:18.799Z,22.90
2018-10-06T19:08:46.271Z,23.10
2018-10-06T19:11:13.766Z,23.40
2018-10-06T19:13:41.247Z,23.70
2018-10-06T19:16:08.733Z,23.90
2018-10-06T19:18:36.189Z,24.10
2018-10-06T19:21:03.665Z,24.20
2018-10-06T19:23:31.111Z,24.30
2018-10-06T19:25:58.886Z,24.30
2018-10-06T19:28:26.338Z,24.30
2018-10-06T19:30:53.833Z,24.30
2018-10-06T19:33:21.609Z,24.20
2018-10-06T19:35:49.117Z,24.20
2018-10-06T19:38:16.800Z,24.10
2018-10-06T19:40:44.251Z,24.00
2018-10-06T19:43:11.759Z,24.00
2018-10-06T19:45:39.249Z,24.00
2018-10-06T19:48:06.706Z,23.90
2018-10-06T19:50:34.164Z,23.80
2018-10-06T19:53:01.604Z,23.80
2018-10-06T19:55:29.094Z,23.90
2018-10-06T19:57:56.591Z,23.80
2018-10-06T20:00:24.049Z,23.80
2018-10-06T20:02:51.517Z,23.80
2018-10-06T20:05:18.980Z,23.80
2018-10-06T20:07:46.438Z,23.70
2018-10-06T20:10:13.870Z,23.60
2018-10-06T20:12:41.422Z,23.50
2018-10-06T20:15:08.931Z,23.40
2018-10-06T20:17:36.393Z,23.20
2018-10-06T20:20:03.937Z,23.00
2018-10-06T20:22:31.402Z,22.90
2018-10-06T20:24:58.887Z,22.70
2018-10-06T20:27:26.358Z,22.70
2018-10-06T20:29:53.900Z,22.80
2018-10-06T20:32:21.370Z,22.90
2018-10-06T20:34:48.867Z,23.00
2018-10-06T20:37:16.316Z,22.90
2018-10-06T20:39:43.780Z,22.90
2018-10-06T20:42:11.282Z,22.70
2018-10-06T20:44:38.703Z,22.30
2018-10-06T20:47:06.242Z,22.10
2018-10-06T20:49:33.720Z,21.80
2018-10-06T20:52:01.216Z,21.70
2018-10-06T20:54:28.657Z,22.00
2018-10-06T20:56:56.174Z,22.30
2018-10-06T20:59:23.677Z,22.50
2018-10-06T21:01:51.242Z,22.80
2018-10-06T21:04:18.658Z,23.00
2018-10-06T21:06:46.161Z,22.70
2018-10-06T21:09:13.827Z,22.60
2018-10-06T21:11:41.810Z,22.30
2018-10-06T21:14:09.257Z,22.70
2018-10-06T21:16:37.277Z,22.30
2018-10-06T21:19:04.879Z,22.60
2018-10-06T21:21:32.461Z,22.80
2018-10-06T21:23:59.995Z,23.10
2018-10-06T21:26:27.474Z,23.20
2018-10-06T21:28:55.096Z,23.20
2018-10-06T21:31:22.519Z,23.20
2018-10-06T21:33:49.896Z,23.10
2018-10-06T21:36:17.369Z,22.50
2018-10-06T21:38:44.894Z,21.70
2018-10-06T21:41:12.316Z,21.50
2018-10-06T21:43:39.790Z,21.50
2018-10-06T21:46:07.251Z,21.80
2018-10-06T21:48:34.711Z,22.00
2018-10-06T21:51:02.209Z,22.20
2018-10-06T21:53:29.663Z,22.30
2018-10-06T21:55:57.130Z,22.50
2018-10-06T21:58:24.563Z,22.60
2018-10-06T22:00:57.638Z,22.50
2018-10-06T22:03:25.269Z,22.10
2018-10-06T22:05:52.726Z,22.10
2018-10-06T22:08:20.177Z,22.20
2018-10-06T22:10:47.691Z,22.40
2018-10-06T22:13:15.200Z,22.60
2018-10-06T22:15:43.175Z,22.70
2018-10-06T22:18:10.671Z,22.60
2018-10-06T22:20:38.318Z,22.50
2018-10-06T22:23:05.829Z,22.30
2018-10-06T22:25:33.396Z,22.00
2018-10-06T22:28:00.865Z,21.70
2018-10-06T22:30:28.297Z,21.50
2018-10-06T22:32:55.725Z,21.40
2018-10-06T22:35:24.677Z,21.30
2018-10-06T22:37:52.173Z,21.50
2018-10-06T22:40:19.661Z,21.80
2018-10-06T22:42:47.112Z,22.00
2018-10-06T22:45:14.531Z,22.10
2018-10-06T22:47:42.025Z,22.20
2018-10-06T22:50:09.484Z,22.10
2018-10-06T22:52:36.956Z,21.90
2018-10-06T22:55:04.515Z,21.60
2018-10-06T22:57:32.625Z,21.70
2018-10-06T23:00:00.082Z,21.90
2018-10-06T23:02:27.594Z,21.90
2018-10-06T23:04:55.038Z,22.00
2018-10-06T23:07:22.546Z,22.00
2018-10-06T23:09:49.958Z,22.00
2018-10-06T23:12:17.410Z,22.00
2018-10-06T23:14:44.842Z,21.90
2018-10-06T23:17:12.268Z,21.80
2018-10-06T23:19:39.843Z,21.50
2018-10-06T23:22:07.354Z,21.60
2018-10-06T23:24:34.781Z,21.70
2018-10-06T23:27:02.220Z,21.80
2018-10-06T23:29:29.714Z,21.60
2018-10-06T23:31:57.166Z,21.70
2018-10-06T23:34:24.671Z,21.70
2018-10-06T23:36:52.229Z,21.60
2018-10-06T23:39:19.757Z,21.70
2018-10-06T23:41:47.230Z,21.60
2018-10-06T23:44:14.730Z,21.70
2018-10-06T23:46:42.232Z,21.70
2018-10-06T23:49:09.703Z,21.70
2018-10-06T23:51:37.122Z,21.70
2018-10-06T23:54:04.605Z,21.40
2018-10-06T23:56:32.132Z,21.00
2018-10-06T23:58:59.626Z,21.20
